Time;durP1;ratioP1;P1;durP2;ratioP2;P2;SDS_P1;SDS_P2;PMS_P1;PMS_P2;Temp;Humidity;BMP_temperature;BMP_pressure;BME280_temperature;BME280_humidity;BME280_pressure;Samples;Min_cycle;Max_cycle;Signal;HPM_P1;HPM_P2
2022/12/24 00:00:00;;;;;;;22.80;2.67;;;;;;;20.96;61.00;98090.97;7312460;19;129803;-65
2022/12/24 00:02:26;;;;;;;31.15;3.17;;;;;;;20.93;60.78;98086.09;7310433;19;130152;-67
2022/12/24 00:04:51;;;;;;;24.20;2.80;;;;;;;20.97;60.31;98091.78;7311112;19;129745;-66
2022/12/24 00:07:16;;;;;;;21.15;2.58;;;;;;;20.96;60.73;98096.19;7311557;19;130038;-65
2022/12/24 00:09:41;;;;;;;24.60;2.25;;;;;;;20.95;60.86;98099.81;7312282;19;128933;-65
2022/12/24 00:12:07;;;;;;;31.48;3.00;;;;;;;20.95;60.68;98104.19;7311275;19;129799;-64
2022/12/24 00:14:32;;;;;;;16.25;1.90;;;;;;;20.95;60.81;98112.88;7312971;19;129568;-67
2022/12/24 00:16:58;;;;;;;18.13;2.35;;;;;;;20.93;60.59;98122.66;7311064;19;129097;-65
2022/12/24 00:19:23;;;;;;;33.30;3.20;;;;;;;20.94;60.62;98113.81;7308356;19;130983;-67
2022/12/24 00:21:48;;;;;;;26.55;3.10;;;;;;;20.94;60.25;98121.66;7311044;19;130077;-66
2022/12/24 00:24:14;;;;;;;23.70;2.30;;;;;;;20.93;60.89;98120.03;7310837;19;129881;-65
2022/12/24 00:26:39;;;;;;;15.32;1.75;;;;;;;20.90;60.63;98112.56;7311653;19;129207;-67
2022/12/24 00:29:04;;;;;;;31.60;3.08;;;;;;;20.87;61.27;98118.13;7311937;19;129283;-67
2022/12/24 00:31:30;;;;;;;20.02;2.15;;;;;;;20.86;61.70;98124.31;7311987;19;129311;-67
2022/12/24 00:33:55;;;;;;;17.55;1.83;;;;;;;20.85;61.85;98127.09;7311501;19;129753;-65
2022/12/24 00:36:21;;;;;;;20.38;2.50;;;;;;;20.82;61.54;98132.69;7310600;19;128662;-67
2022/12/24 00:38:46;;;;;;;40.43;3.77;;;;;;;20.77;61.11;98127.97;7311483;19;128925;-65
2022/12/24 00:41:27;;;;;;;15.57;1.55;;;;;;;20.72;61.18;98125.06;7311104;19;129383;-67
2022/12/24 00:44:00;;;;;;;19.52;2.35;;;;;;;20.73;61.15;98126.66;7313091;19;129618;-66
2022/12/24 00:46:28;;;;;;;17.75;1.90;;;;;;;20.72;62.80;98123.22;7311185;19;129018;-66
2022/12/24 00:48:53;;;;;;;19.00;2.47;;;;;;;20.72;61.30;98132.88;7309234;19;129578;-64
2022/12/24 00:51:20;;;;;;;35.70;3.47;;;;;;;20.71;61.07;98144.28;7310487;19;129287;-66
2022/12/24 00:53:45;;;;;;;13.07;1.38;;;;;;;20.72;61.70;98143.34;7312782;19;129911;-66
2022/12/24 00:56:11;;;;;;;20.85;2.20;;;;;;;20.71;61.90;98144.28;7310638;19;129025;-65
2022/12/24 00:58:36;;;;;;;15.68;1.77;;;;;;;20.71;61.93;98160.78;7311045;19;128759;-66
2022/12/24 01:01:02;;;;;;;30.15;2.95;;;;;;;20.73;62.48;98160.63;7311279;19;129853;-65
2022/12/24 01:03:36;;;;;;;20.98;2.47;;;;;;;20.72;62.02;98161.63;7311601;19;129721;-66
2022/12/24 01:06:09;;;;;;;14.70;1.90;;;;;;;20.60;62.72;98152.50;7310230;19;130202;-66
2022/12/24 01:08:35;;;;;;;17.80;1.92;;;;;;;20.68;61.65;98171.56;7310631;19;129238;-67
2022/12/24 01:11:01;;;;;;;42.50;3.87;;;;;;;20.70;61.59;98174.03;7310149;19;130048;-68
2022/12/24 01:13:27;;;;;;;23.45;1.95;;;;;;;20.73;62.32;98173.69;7310791;19;129126;-66
2022/12/24 01:15:52;;;;;;;20.27;2.08;;;;;;;20.72;61.53;98177.28;7309325;19;129058;-67
2022/12/24 01:18:18;;;;;;;26.98;2.72;;;;;;;20.72;62.64;98185.13;7309521;19;130179;-67
2022/12/24 01:20:43;;;;;;;33.13;2.97;;;;;;;20.67;62.08;98179.59;7309667;19;129831;-66
2022/12/24 01:23:08;;;;;;;18.20;1.73;;;;;;;20.74;62.22;98191.00;7312180;19;129776;-67
2022/12/24 01:25:37;;;;;;;12.93;1.30;;;;;;;20.71;61.95;98194.75;7307873;19;129533;-66
2022/12/24 01:28:02;;;;;;;21.50;2.17;;;;;;;20.72;61.51;98200.78;7310758;19;129921;-68
2022/12/24 01:30:27;;;;;;;45.08;4.22;;;;;;;20.71;62.38;98199.97;7308778;19;129804;-66
2022/12/24 01:32:53;;;;;;;18.83;1.95;;;;;;;20.71;61.33;98186.09;7309073;19;130457;-66
2022/12/24 01:35:18;;;;;;;15.23;1.55;;;;;;;20.71;62.20;98191.31;7310208;19;130245;-67
2022/12/24 01:37:43;;;;;;;16.50;1.48;;;;;;;20.68;62.96;98197.69;7309899;19;130443;-67
2022/12/24 01:45:55;;;;;;;27.98;2.75;;;;;;;20.68;62.64;98215.16;7309539;19;129003;-66
2022/12/24 01:48:36;;;;;;;18.75;2.22;;;;;;;20.71;63.01;98217.41;7310799;19;130182;-67
2022/12/24 01:51:34;;;;;;;25.23;2.85;;;;;;;20.69;62.97;98222.03;7309590;19;129364;-64
2022/12/24 01:54:11;;;;;;;30.92;3.33;;;;;;;20.68;62.70;98233.44;7308114;19;132078;-66
2022/12/24 01:56:43;;;;;;;17.15;1.70;;;;;;;20.64;62.56;98232.16;7308833;19;130858;-67
2022/12/24 01:59:12;;;;;;;24.23;2.45;;;;;;;20.69;62.70;98235.06;7308239;19;129128;-66
2022/12/24 02:01:38;;;;;;;18.35;1.63;;;;;;;20.69;62.08;98225.41;7307741;19;130204;-66
2022/12/24 02:04:11;;;;;;;33.92;3.20;;;;;;;20.67;63.23;98231.81;7309617;19;129384;-67
2022/12/24 02:06:36;;;;;;;23.67;2.28;;;;;;;20.67;62.70;98237.03;7310801;19;128837;-67
2022/12/24 02:09:02;;;;;;;29.60;3.10;;;;;;;20.64;62.28;98234.75;7308618;19;128911;-68
2022/12/24 02:11:29;;;;;;;17.90;1.93;;;;;;;20.66;61.97;98238.00;7307500;19;129586;-68
2022/12/24 02:13:59;;;;;;;30.65;2.92;;;;;;;20.67;62.70;98237.03;7308434;19;129336;-67
2022/12/24 02:16:41;;;;;;;26.48;2.67;;;;;;;20.56;62.62;98225.13;7307909;19;129591;-65
2022/12/24 02:19:46;;;;;;;24.75;2.90;;;;;;;20.67;63.00;98242.25;7308919;19;129665;-65
2022/12/24 02:22:24;;;;;;;36.90;3.50;;;;;;;20.58;62.91;98228.41;7307942;19;129060;-68
2022/12/24 02:25:22;;;;;;;37.88;3.63;;;;;;;20.71;63.45;98256.59;7306254;19;131208;-64
2022/12/24 02:28:08;;;;;;;31.57;2.80;;;;;;;20.70;63.07;98254.97;7310061;19;129843;-65
2022/12/24 02:30:41;;;;;;;29.48;2.75;;;;;;;20.71;62.56;98256.59;7315197;19;129137;-66
2022/12/24 02:33:21;;;;;;;31.48;3.17;;;;;;;20.69;62.09;98266.41;7314656;19;129120;-65
2022/12/24 02:36:01;;;;;;;19.58;2.13;;;;;;;20.71;63.10;98264.44;7315341;19;129658;-66
2022/12/24 02:38:50;;;;;;;14.02;1.67;;;;;;;20.69;61.90;98269.03;7315816;19;129358;-65
2022/12/24 02:41:22;;;;;;;18.00;2.00;;;;;;;20.70;62.92;98278.47;7312903;19;130317;-65
2022/12/24 02:43:50;;;;;;;17.80;1.98;;;;;;;20.69;61.73;98287.31;7315553;19;130195;-68
2022/12/24 02:46:19;;;;;;;12.48;1.25;;;;;;;20.68;62.71;98286.47;7314407;19;129676;-65
2022/12/24 02:48:47;;;;;;;33.65;3.28;;;;;;;20.73;62.18;98293.81;7314971;19;129772;-67
2022/12/24 02:51:12;;;;;;;18.70;2.25;;;;;;;20.69;61.95;98287.31;7315092;19;129164;-67
2022/12/24 02:53:39;;;;;;;13.07;1.30;;;;;;;20.67;63.04;98294.47;7312820;19;129623;-67
2022/12/24 02:56:25;;;;;;;22.27;2.17;;;;;;;20.73;62.79;98299.84;7312414;19;133327;-67
2022/12/24 02:59:22;;;;;;;17.90;1.85;;;;;;;20.72;62.80;98298.22;7314867;19;128999;-68
2022/12/24 03:02:21;;;;;;;23.52;2.35;;;;;;;20.65;63.04;98294.66;7314948;19;129461;-66
2022/12/24 03:05:01;;;;;;;18.83;1.65;;;;;;;20.64;63.35;98298.22;7314423;19;131148;-67
2022/12/24 03:07:35;;;;;;;18.13;2.13;;;;;;;20.68;62.99;98315.22;7314955;19;129421;-65
2022/12/24 03:10:12;;;;;;;17.98;2.17;;;;;;;20.62;62.44;98302.00;7314653;19;129193;-66
2022/12/24 03:12:41;;;;;;;27.23;2.47;;;;;;;20.73;62.18;98325.16;7313554;19;130715;-67
2022/12/24 03:15:10;;;;;;;68.88;6.63;;;;;;;20.69;62.45;98335.09;7313490;19;129137;-66
2022/12/24 03:17:38;;;;;;;13.35;1.55;;;;;;;20.62;62.85;98328.09;7313937;19;132076;-67
2022/12/24 03:20:07;;;;;;;15.50;1.60;;;;;;;20.72;62.60;98336.59;7315514;19;129280;-66
2022/12/24 03:22:33;;;;;;;7.43;1.05;;;;;;;20.73;62.23;98340.81;7314863;19;129410;-66
2022/12/24 03:24:59;;;;;;;64.53;6.95;;;;;;;20.74;61.66;98337.25;7312621;19;129546;-65
2022/12/24 03:27:27;;;;;;;12.57;1.55;;;;;;;20.72;62.30;98336.59;7314810;19;130071;-65
2022/12/24 03:29:53;;;;;;;9.02;1.20;;;;;;;20.76;62.43;98340.50;7314306;19;129640;-65
2022/12/24 03:32:31;;;;;;;22.20;2.03;;;;;;;20.75;62.98;98338.88;7309737;19;129815;-67
2022/12/24 03:34:57;;;;;;;38.60;4.57;;;;;;;20.72;62.10;98336.59;7314050;19;129580;-68
2022/12/24 03:37:23;;;;;;;32.17;3.00;;;;;;;20.72;62.54;98333.97;7314692;19;130820;-67
2022/12/24 03:39:48;;;;;;;12.93;1.67;;;;;;;20.73;62.17;98346.03;7311191;19;128833;-67
2022/12/24 03:42:14;;;;;;;14.13;1.40;;;;;;;20.74;62.28;98345.09;7311503;19;129356;-66
2022/12/24 03:44:39;;;;;;;28.13;2.55;;;;;;;20.72;61.58;98339.19;7311683;19;132145;-66
2022/12/24 03:47:04;;;;;;;25.75;2.47;;;;;;;20.70;62.32;98349.00;7312630;19;129205;-65
2022/12/24 03:49:30;;;;;;;15.45;2.13;;;;;;;20.71;62.52;98350.63;7313081;19;130296;-67
2022/12/24 03:51:55;;;;;;;24.15;2.67;;;;;;;20.71;62.45;98346.22;7311631;19;129947;-64
2022/12/24 03:54:21;;;;;;;32.10;3.30;;;;;;;20.74;62.30;98348.50;7313342;19;129088;-65
2022/12/24 03:56:46;;;;;;;15.38;1.55;;;;;;;20.76;62.19;98363.19;7311642;19;129227;-66
2022/12/24 03:59:11;;;;;;;18.75;2.05;;;;;;;20.72;62.20;98357.47;7312900;19;129005;-66
2022/12/24 04:01:37;;;;;;;15.30;1.60;;;;;;;20.71;62.12;98361.88;7311855;19;129680;-66
2022/12/24 04:04:02;;;;;;;32.25;3.15;;;;;;;20.72;62.58;98360.09;7312846;19;128980;-65
2022/12/24 04:06:27;;;;;;;17.83;1.80;;;;;;;20.65;62.01;98340.84;7312419;19;129236;-66
2022/12/24 04:08:53;;;;;;;27.25;2.97;;;;;;;20.74;61.96;98368.59;7311707;19;129183;-65
2022/12/24 04:11:18;;;;;;;13.70;1.58;;;;;;;20.71;62.21;98369.72;7311664;19;129502;-65
2022/12/24 04:13:44;;;;;;;31.80;3.05;;;;;;;20.73;61.66;98385.22;7310392;19;129473;-67
2022/12/24 04:16:13;;;;;;;14.32;1.48;;;;;;;20.74;62.35;98379.03;7312689;19;129214;-67
2022/12/24 04:18:39;;;;;;;15.60;1.55;;;;;;;20.63;61.36;98361.88;7311629;19;128890;-67
2022/12/24 04:21:05;;;;;;;15.63;1.77;;;;;;;20.73;61.89;98378.22;7311571;19;129537;-65
2022/12/24 04:23:33;;;;;;;47.78;5.00;;;;;;;20.69;62.22;98381.31;7312353;19;129458;-65
2022/12/24 04:25:59;;;;;;;18.15;2.00;;;;;;;20.71;62.07;98379.34;7311417;19;129376;-68
2022/12/24 04:28:24;;;;;;;15.25;1.85;;;;;;;20.71;62.55;98384.56;7312314;19;129142;-65
2022/12/24 04:30:50;;;;;;;15.95;1.85;;;;;;;20.70;62.00;98385.56;7311897;19;129894;-66
2022/12/24 04:33:15;;;;;;;14.23;1.60;;;;;;;20.69;62.09;98397.00;7311297;19;129610;-67
2022/12/24 04:35:41;;;;;;;18.50;1.90;;;;;;;20.70;62.28;98398.63;7312609;19;129144;-65
2022/12/24 04:38:08;;;;;;;20.50;2.40;;;;;;;20.69;62.61;98403.00;7312040;19;130122;-65
2022/12/24 04:40:33;;;;;;;;;;;;;;;20.74;62.36;98405.94;7312982;19;129390;-66
2022/12/24 04:42:59;;;;;;;39.30;3.42;;;;;;;20.70;61.74;98402.06;7313423;19;130358;-65
2022/12/24 04:45:24;;;;;;;18.93;1.80;;;;;;;20.68;61.87;98406.59;7314289;19;129263;-67
2022/12/24 04:47:49;;;;;;;27.55;3.08;;;;;;;20.67;62.71;98412.00;7310403;19;128797;-65
2022/12/24 04:50:15;;;;;;;26.08;2.25;;;;;;;20.69;62.40;98421.28;7310336;19;128960;-68
2022/12/24 04:52:40;;;;;;;35.45;3.20;;;;;;;20.67;61.95;98425.06;7310787;19;129085;-65
2022/12/24 04:55:06;;;;;;;56.80;6.28;;;;;;;20.69;61.93;98423.91;7310119;19;129283;-67
2022/12/24 04:57:33;;;;;;;16.53;1.63;;;;;;;20.69;62.49;98423.09;7312065;19;129391;-66
2022/12/24 04:59:58;;;;;;;34.03;3.45;;;;;;;20.67;62.38;98438.94;7311125;19;129347;-68
2022/12/24 05:02:24;;;;;;;29.58;3.08;;;;;;;20.65;62.35;98447.91;7308888;19;130619;-64
2022/12/24 05:04:49;;;;;;;20.50;2.07;;;;;;;20.64;61.97;98443.66;7309688;19;129135;-66
2022/12/24 05:07:15;;;;;;;15.98;1.83;;;;;;;20.64;62.49;98456.72;7311313;19;128991;-67
2022/12/24 05:09:40;;;;;;;30.15;2.65;;;;;;;20.63;61.50;98460.28;7312356;19;129872;-66
2022/12/24 05:12:06;;;;;;;17.23;1.88;;;;;;;20.60;62.03;98471.06;7309378;19;129219;-65
2022/12/24 05:14:31;;;;;;;14.37;1.50;;;;;;;20.61;62.35;98472.69;7311616;19;129671;-66
2022/12/24 05:16:56;;;;;;;17.75;1.92;;;;;;;20.64;62.58;98475.00;7309914;19;129455;-64
2022/12/24 05:19:22;;;;;;;37.22;3.20;;;;;;;20.51;62.45;98469.44;7309562;19;129873;-67
2022/12/24 05:26:20;;;;;;;23.83;2.50;;;;;;;20.60;62.47;98494.56;7310358;19;130953;-66
2022/12/24 05:27:17;;;;;;;8.85;0.90;;;;;;;20.61;62.46;98498.81;7311175;19;128994;-65
2022/12/24 05:29:42;;;;;;;17.27;1.63;;;;;;;20.60;62.08;98502.41;7310423;19;128969;-65
2022/12/24 05:32:07;;;;;;;26.92;2.80;;;;;;;20.57;62.15;98502.72;7307338;19;129573;-68
2022/12/24 05:34:32;;;;;;;33.13;3.00;;;;;;;20.53;62.14;98488.34;7305405;19;132045;-67
2022/12/24 05:36:58;;;;;;;18.50;2.40;;;;;;;20.60;62.35;98500.63;7312133;19;129232;-66
2022/12/24 05:39:23;;;;;;;16.13;1.70;;;;;;;20.60;62.29;98505.00;7309867;19;129922;-66
2022/12/24 05:41:48;;;;;;;24.98;2.38;;;;;;;20.60;62.09;98498.00;7307714;19;129472;-65
2022/12/24 05:44:15;;;;;;;17.35;1.92;;;;;;;20.60;61.94;98507.63;7311007;19;130140;-65
2022/12/24 05:46:40;;;;;;;18.07;1.87;;;;;;;20.57;61.99;98515.78;7309718;19;129696;-65
2022/12/24 05:49:06;;;;;;;16.23;1.77;;;;;;;20.57;62.63;98518.38;7309466;19;129254;-64
2022/12/24 05:51:31;;;;;;;20.83;1.88;;;;;;;20.45;62.53;98498.75;7308055;19;129607;-65
2022/12/24 05:53:57;;;;;;;18.20;2.05;;;;;;;20.58;62.43;98520.00;7309451;19;129262;-66
2022/12/24 05:56:23;;;;;;;6.90;1.10;;;;;;;20.55;62.04;98529.00;7309858;19;129015;-66
2022/12/24 05:58:49;;;;;;;;;;;;;;;20.62;63.25;98526.56;7308915;19;130859;-66
2022/12/24 06:01:15;;;;;;;36.92;3.30;;;;;;;20.55;61.89;98515.94;7308870;19;129513;-65
2022/12/24 06:03:41;;;;;;;16.05;1.67;;;;;;;20.55;62.60;98521.16;7315429;19;129293;-67
2022/12/24 06:06:10;;;;;;;15.13;1.63;;;;;;;20.55;62.45;98536.00;7315520;19;128936;-64
2022/12/24 06:08:36;;;;;;;20.35;1.98;;;;;;;20.53;62.67;98538.78;7316454;19;129803;-66
2022/12/24 06:11:04;;;;;;;23.73;2.42;;;;;;;20.52;62.26;98542.38;7315151;19;129667;-68
2022/12/24 06:13:30;;;;;;;17.33;1.98;;;;;;;20.54;62.03;98552.66;7316849;19;131085;-67
2022/12/24 06:15:59;;;;;;;21.13;2.35;;;;;;;20.56;62.57;98563.78;7314710;19;129771;-67
2022/12/24 06:18:27;;;;;;;15.13;1.95;;;;;;;20.56;62.81;98561.16;7315194;19;129263;-65
2022/12/24 06:20:54;;;;;;;31.50;3.03;;;;;;;20.53;61.75;98574.50;7316354;19;130161;-67
2022/12/24 06:23:21;;;;;;;17.02;1.70;;;;;;;20.53;62.41;98579.72;7317644;19;131370;-68
2022/12/24 06:25:46;;;;;;;12.43;1.33;;;;;;;20.54;62.72;98570.94;7315107;19;129574;-65
2022/12/24 06:28:12;;;;;;;17.27;1.67;;;;;;;20.49;62.15;98567.97;7317009;19;129105;-66
2022/12/24 06:30:37;;;;;;;36.97;3.13;;;;;;;20.54;62.39;98584.00;7317422;19;129346;-65
2022/12/24 06:33:03;;;;;;;22.97;2.17;;;;;;;20.52;61.71;98588.53;7316295;19;129202;-67
2022/12/24 06:35:30;;;;;;;18.45;1.92;;;;;;;20.44;62.49;98583.28;7315750;19;129185;-67
2022/12/24 06:37:55;;;;;;;19.52;1.83;;;;;;;20.52;62.20;98604.22;7314713;19;128997;-67
2022/12/24 06:40:20;;;;;;;42.65;3.67;;;;;;;20.51;62.72;98594.75;7314456;19;129788;-67
2022/12/24 06:42:46;;;;;;;19.98;1.88;;;;;;;20.49;62.30;98601.91;7316147;19;129996;-64
2022/12/24 06:45:11;;;;;;;32.63;3.63;;;;;;;20.50;62.19;98606.97;7312681;19;130470;-65
2022/12/24 06:47:36;;;;;;;23.85;2.55;;;;;;;20.51;62.26;98606.00;7315276;19;129786;-64
2022/12/24 06:50:02;;;;;;;26.50;2.53;;;;;;;20.52;62.89;98612.03;7315468;19;129436;-66
2022/12/24 06:52:27;;;;;;;23.40;2.63;;;;;;;20.51;62.92;98610.41;7314054;19;131697;-66
2022/12/24 06:54:53;;;;;;;36.60;3.47;;;;;;;20.52;62.55;98614.66;7313965;19;129495;-66
2022/12/24 06:57:18;;;;;;;20.00;2.63;;;;;;;20.53;62.74;98621.50;7314495;19;129432;-66
2022/12/24 06:59:43;;;;;;;32.75;3.13;;;;;;;20.51;62.77;98628.69;7313852;19;129949;-67
2022/12/24 07:02:09;;;;;;;16.63;1.75;;;;;;;20.41;62.16;98620.97;7313147;19;131199;-65
2022/12/24 07:04:34;;;;;;;17.02;1.65;;;;;;;20.50;62.63;98645.31;7315680;19;129540;-67
2022/12/24 07:07:00;;;;;;;36.33;3.35;;;;;;;20.41;62.52;98631.41;7313701;19;129051;-67
2022/12/24 07:09:25;;;;;;;24.52;2.33;;;;;;;20.50;62.14;98650.53;7312915;19;130374;-65
2022/12/24 07:11:50;;;;;;;17.38;1.80;;;;;;;20.50;62.52;98655.75;7312940;19;129703;-66
2022/12/24 07:14:16;;;;;;;18.25;1.83;;;;;;;20.50;62.21;98663.59;7308219;19;129726;-68
2022/12/24 07:16:41;;;;;;;34.47;3.15;;;;;;;20.51;62.04;98660.03;7312285;19;128979;-64
2022/12/24 07:19:06;;;;;;;28.05;2.72;;;;;;;20.48;62.63;98673.38;7314434;19;129710;-67
2022/12/24 07:21:32;;;;;;;13.07;1.52;;;;;;;20.47;62.75;98672.56;7312966;19;130492;-64
2022/12/24 07:23:57;;;;;;;9.30;1.17;;;;;;;20.48;62.80;98675.97;7313732;19;129674;-66
2022/12/24 07:26:22;;;;;;;35.83;3.25;;;;;;;20.47;62.67;98680.41;7313236;19;128881;-66
2022/12/24 07:28:48;;;;;;;20.38;2.35;;;;;;;20.47;62.14;98679.56;7313204;19;129383;-66
2022/12/24 07:31:13;;;;;;;10.10;1.00;;;;;;;20.48;62.50;98678.59;7312294;19;131671;-65
2022/12/24 07:33:39;;;;;;;18.73;1.63;;;;;;;20.48;62.39;98681.19;7312838;19;129060;-66
2022/12/24 07:36:07;;;;;;;33.13;2.90;;;;;;;20.49;62.30;98683.66;7313923;19;129210;-68
2022/12/24 07:38:33;;;;;;;12.00;1.48;;;;;;;20.50;62.61;98694.94;7314940;19;129749;-66
2022/12/24 07:40:59;;;;;;;21.45;2.58;;;;;;;20.51;62.55;98701.81;7311840;19;129705;-66
2022/12/24 07:43:25;;;;;;;16.58;1.98;;;;;;;20.49;62.88;98695.91;7313518;19;129077;-67
2022/12/24 07:45:54;;;;;;;27.57;2.70;;;;;;;20.51;63.02;98715.66;7313500;19;129317;-67
2022/12/24 07:48:19;;;;;;;10.43;1.15;;;;;;;20.48;62.55;98728.19;7313457;19;130084;-65
2022/12/24 07:50:45;;;;;;;16.70;1.60;;;;;;;20.50;62.57;98726.25;7312393;19;130306;-67
2022/12/24 07:53:10;;;;;;;15.25;1.45;;;;;;;20.48;62.66;98715.13;7312795;19;129802;-65
2022/12/24 07:55:35;;;;;;;35.55;3.20;;;;;;;20.47;62.19;98716.13;7310185;19;129029;-66
2022/12/24 07:58:01;;;;;;;20.02;2.35;;;;;;;20.50;62.12;98715.81;7312725;19;129425;-65
2022/12/24 08:00:26;;;;;;;16.00;2.03;;;;;;;20.48;62.69;98712.53;7311481;19;130857;-66
2022/12/24 08:02:51;;;;;;;34.55;3.20;;;;;;;20.48;62.66;98723.81;7312793;19;128882;-66
2022/12/24 08:05:17;;;;;;;19.55;2.00;;;;;;;20.48;61.85;98730.81;7312294;19;130425;-64
2022/12/24 08:07:42;;;;;;;14.20;1.33;;;;;;;20.47;62.20;98729.19;7313548;19;129069;-66
2022/12/24 08:10:08;;;;;;;18.33;2.08;;;;;;;20.47;62.42;98739.63;7311920;19;129371;-64
2022/12/24 08:12:33;;;;;;;45.80;3.67;;;;;;;20.48;62.32;98738.63;7313361;19;130697;-65
2022/12/24 08:14:59;;;;;;;58.43;5.73;;;;;;;20.49;62.56;98745.53;7313954;19;130076;-65
2022/12/24 08:17:24;;;;;;;19.73;2.08;;;;;;;20.36;62.96;98737.28;7310738;19;129783;-66
2022/12/24 08:19:49;;;;;;;19.40;1.90;;;;;;;20.47;62.11;98752.69;7312810;19;129762;-67
2022/12/24 08:22:15;;;;;;;33.88;3.00;;;;;;;20.36;62.61;98745.09;7310231;19;129481;-65
2022/12/24 08:24:40;;;;;;;10.20;0.95;;;;;;;20.46;62.62;98770.13;7312805;19;128999;-66
2022/12/24 08:27:06;;;;;;;21.20;2.17;;;;;;;20.35;62.80;98753.88;7309025;19;130152;-65
2022/12/24 08:29:31;;;;;;;17.70;1.65;;;;;;;20.45;63.12;98780.72;7309772;19;132498;-65
2022/12/24 08:31:56;;;;;;;34.03;3.10;;;;;;;20.48;62.59;98780.41;7310964;19;130028;-67
2022/12/24 08:34:22;;;;;;;17.23;1.70;;;;;;;20.47;62.08;98774.41;7311609;19;129364;-66
2022/12/24 08:36:47;;;;;;;16.92;1.70;;;;;;;20.48;61.76;98791.69;7310654;19;128963;-65
2022/12/24 08:39:12;;;;;;;27.10;2.50;;;;;;;20.39;62.32;98791.78;7311338;19;129256;-66
2022/12/24 08:41:37;;;;;;;23.00;1.95;;;;;;;20.47;62.93;98794.44;7311011;19;129093;-65
2022/12/24 08:44:03;;;;;;;24.60;2.50;;;;;;;20.48;63.01;98801.31;7312074;19;129137;-67
2022/12/24 08:46:28;;;;;;;16.20;1.90;;;;;;;20.47;62.49;98795.28;7310522;19;129496;-66
2022/12/24 08:48:54;;;;;;;39.08;3.80;;;;;;;20.48;62.47;98816.97;7310697;19;130024;-68
2022/12/24 08:51:19;;;;;;;19.20;1.90;;;;;;;20.49;62.21;98818.63;7310174;19;128864;-67
2022/12/24 08:53:45;;;;;;;17.67;1.70;;;;;;;20.49;62.18;98813.41;7310442;19;129675;-65
2022/12/24 08:56:11;;;;;;;10.65;1.15;;;;;;;20.48;62.65;98816.97;7310383;19;129029;-65
2022/12/24 08:58:36;;;;;;;36.83;3.28;;;;;;;20.48;62.33;98837.84;7310882;19;129091;-65
2022/12/24 09:01:14;;;;;;;26.90;2.92;;;;;;;20.49;63.27;98829.06;7310903;19;129278;-67
2022/12/24 09:03:40;;;;;;;14.07;1.25;;;;;;;20.48;62.93;98840.47;7310202;19;129336;-65
2022/12/24 09:06:06;;;;;;;13.77;1.48;;;;;;;20.49;62.83;98835.09;7311651;19;129270;-67
2022/12/24 09:08:32;;;;;;;21.97;2.20;;;;;;;20.47;62.21;98839.66;7311042;19;129747;-67
2022/12/24 09:11:09;;;;;;;25.23;3.10;;;;;;;20.48;62.67;98846.53;7309634;19;128839;-66
2022/12/24 09:13:34;;;;;;;;;;;;;;;20.48;62.49;98841.28;7310942;19;129180;-67
2022/12/24 09:16:00;;;;;;;22.10;2.33;;;;;;;20.48;62.39;98843.06;7309114;19;129588;-66
2022/12/24 09:18:25;;;;;;;24.50;2.65;;;;;;;20.49;62.85;98844.75;7309969;19;129444;-67
2022/12/24 09:20:56;;;;;;;43.85;4.03;;;;;;;20.49;62.38;98855.19;7308646;19;130332;-65
2022/12/24 09:23:22;;;;;;;29.88;3.30;;;;;;;20.48;62.40;98848.31;7310975;19;130738;-65
2022/12/24 09:25:47;;;;;;;16.17;1.88;;;;;;;20.48;62.42;98863.97;7309392;19;129588;-67
2022/12/24 09:28:12;;;;;;;17.83;1.83;;;;;;;20.38;62.36;98843.16;7307678;19;131889;-66
2022/12/24 09:30:38;;;;;;;32.22;2.95;;;;;;;20.47;62.00;98868.38;7310042;19;129027;-67
2022/12/24 09:33:03;;;;;;;16.92;1.88;;;;;;;20.48;62.60;98875.25;7307512;19;129250;-65
2022/12/24 09:35:28;;;;;;;15.85;1.67;;;;;;;20.46;62.41;98871.94;7306965;19;132360;-66
2022/12/24 09:38:03;;;;;;;21.35;2.33;;;;;;;20.49;62.15;98883.91;7307305;19;129507;-67
2022/12/24 09:40:36;;;;;;;28.45;2.75;;;;;;;20.47;63.11;98888.44;7309885;19;129176;-66
2022/12/24 09:43:10;;;;;;;26.40;2.88;;;;;;;20.46;62.85;98895.44;7310789;19;129535;-66
2022/12/24 09:45:40;;;;;;;12.80;1.40;;;;;;;20.46;62.65;98897.25;7310294;19;129397;-65
2022/12/24 09:48:11;;;;;;;16.23;1.83;;;;;;;20.47;62.67;98898.88;7308897;19;129250;-67
2022/12/24 09:50:47;;;;;;;17.70;1.90;;;;;;;20.47;62.64;98904.13;7308521;19;129380;-66
2022/12/24 09:53:26;;;;;;;34.75;3.33;;;;;;;20.48;62.93;98905.75;7308158;19;131058;-67
2022/12/24 09:55:56;;;;;;;32.30;2.70;;;;;;;20.45;63.09;98900.81;7309377;19;131078;-67
2022/12/24 09:58:42;;;;;;;22.98;2.13;;;;;;;20.46;62.69;98908.50;7312119;19;129716;-67
2022/12/24 10:01:13;;;;;;;25.00;2.50;;;;;;;20.45;62.62;98916.50;7308388;19;129758;-67
2022/12/24 10:03:39;;;;;;;15.57;1.42;;;;;;;20.45;62.27;98921.72;7308384;19;129888;-65
2022/12/24 10:06:16;;;;;;;15.18;1.70;;;;;;;20.45;62.85;98926.94;7308528;19;129407;-66
2022/12/24 10:08:45;;;;;;;;;;;;;;;20.51;62.41;98915.91;7309821;19;129163;-65
2022/12/24 10:11:26;;;;;;;34.33;3.13;;;;;;;20.48;62.58;98921.41;7308560;19;129409;-65
2022/12/24 10:14:26;;;;;;;34.28;3.15;;;;;;;20.45;62.70;98932.97;7307993;19;129144;-65
2022/12/24 10:17:23;;;;;;;35.42;3.20;;;;;;;20.47;62.86;98930.22;7308336;19;129570;-66
2022/12/24 10:20:07;;;;;;;21.37;2.33;;;;;;;20.45;62.52;98932.16;7309244;19;129249;-66
2022/12/24 10:22:51;;;;;;;26.90;2.60;;;;;;;20.44;62.96;98935.75;7310596;19;129064;-67
2022/12/24 10:25:55;;;;;;;26.75;2.58;;;;;;;20.43;62.86;98934.91;7308580;19;130426;-65
2022/12/24 10:28:33;;;;;;;15.75;1.67;;;;;;;20.36;62.60;98933.06;7308242;19;129173;-67
2022/12/24 10:31:02;;;;;;;25.77;2.33;;;;;;;20.44;62.28;98946.19;7307813;19;130083;-65
2022/12/24 10:33:33;;;;;;;42.80;4.10;;;;;;;20.42;62.70;98950.72;7307470;19;129004;-66
2022/12/24 10:35:59;;;;;;;20.73;2.03;;;;;;;20.43;61.89;98960.19;7309032;19;129802;-67
2022/12/24 10:38:25;;;;;;;21.08;2.20;;;;;;;20.43;62.20;98954.97;7307679;19;129712;-67
2022/12/24 10:40:54;;;;;;;14.80;1.55;;;;;;;20.43;62.27;98955.81;7308113;19;130544;-67
2022/12/24 10:43:23;;;;;;;39.50;3.80;;;;;;;20.44;62.38;98956.63;7308873;19;129578;-67
2022/12/24 10:45:55;;;;;;;21.80;2.10;;;;;;;20.44;62.33;98951.41;7307838;19;130254;-66
2022/12/24 10:48:27;;;;;;;15.43;1.60;;;;;;;20.42;62.57;98955.94;7310758;19;129733;-64
2022/12/24 10:50:58;;;;;;;11.57;1.40;;;;;;;20.42;62.78;98963.78;7315741;19;129177;-68
2022/12/24 10:53:35;;;;;;;19.20;2.05;;;;;;;20.41;62.67;98968.19;7314562;19;129963;-67
2022/12/24 10:56:07;;;;;;;21.33;2.35;;;;;;;20.41;61.94;98970.78;7313856;19;129184;-65
2022/12/24 10:58:33;;;;;;;36.95;3.50;;;;;;;20.42;61.94;98974.22;7315451;19;129525;-65
2022/12/24 11:00:58;;;;;;;12.80;1.80;;;;;;;20.41;62.45;98968.19;7313274;19;132002;-66
2022/12/24 11:03:30;;;;;;;23.05;2.60;;;;;;;20.40;62.85;98979.59;7312695;19;129318;-66
2022/12/24 11:06:00;;;;;;;17.35;1.90;;;;;;;20.41;62.43;98983.84;7314975;19;129233;-67
2022/12/24 11:08:26;;;;;;;39.25;3.80;;;;;;;20.41;61.77;98977.81;7314482;19;129744;-66
2022/12/24 11:10:59;;;;;;;7.07;1.00;;;;;;;20.42;62.72;98984.66;7314910;19;129249;-66
2022/12/24 11:13:30;;;;;;;24.38;2.55;;;;;;;20.41;62.31;98993.47;7315279;19;129412;-66
2022/12/24 11:16:10;;;;;;;21.33;2.58;;;;;;;20.40;62.82;98990.03;7314063;19;129469;-65
2022/12/24 11:18:43;;;;;;;10.07;1.08;;;;;;;20.40;61.96;98991.81;7315613;19;129828;-65
2022/12/24 11:21:08;;;;;;;25.15;2.90;;;;;;;20.29;62.39;98971.97;7312784;19;130262;-64
2022/12/24 11:23:34;;;;;;;22.33;2.38;;;;;;;20.41;61.62;99003.94;7314590;19;129654;-67
2022/12/24 11:25:59;;;;;;;16.20;1.80;;;;;;;20.41;62.12;99003.94;7313464;19;128922;-64
2022/12/24 11:28:33;;;;;;;25.40;2.75;;;;;;;20.41;62.92;99009.94;7313338;19;129689;-67
2022/12/24 11:31:05;;;;;;;22.02;2.42;;;;;;;20.38;62.49;99012.84;7311575;19;130259;-64
2022/12/24 11:33:31;;;;;;;38.97;3.90;;;;;;;20.41;62.74;99014.38;7313395;19;128815;-65